sensor_id;sensor_type;location;lat;lon;timestamp;temperature;humidity
9849;DHT22;4963;51.444;6.528;2023-10-13T00:01:47;17.60;99.90
9849;DHT22;4963;51.444;6.528;2023-10-13T00:04:14;17.60;99.90
9849;DHT22;4963;51.444;6.528;2023-10-13T00:06:41;17.60;99.90
9849;DHT22;4963;51.444;6.528;2023-10-13T00:09:10;17.60;99.90
9849;DHT22;4963;51.444;6.528;2023-10-13T00:11:41;17.60;99.90
9849;DHT22;4963;51.444;6.528;2023-10-13T00:14:11;17.60;99.90
9849;DHT22;4963;51.444;6.528;2023-10-13T00:16:39;17.60;99.90
9849;DHT22;4963;51.444;6.528;2023-10-13T00:19:08;17.60;99.90
9849;DHT22;4963;51.444;6.528;2023-10-13T00:21:39;17.60;99.90
9849;DHT22;4963;51.444;6.528;2023-10-13T00:24:07;17.60;99.90
9849;DHT22;4963;51.444;6.528;2023-10-13T00:26:39;17.60;99.90
9849;DHT22;4963;51.444;6.528;2023-10-13T00:29:08;17.60;99.90
9849;DHT22;4963;51.444;6.528;2023-10-13T00:31:42;17.50;99.90
9849;DHT22;4963;51.444;6.528;2023-10-13T00:34:11;17.50;99.90
9849;DHT22;4963;51.444;6.528;2023-10-13T00:36:44;17.60;99.90
9849;DHT22;4963;51.444;6.528;2023-10-13T00:39:14;17.60;99.90
9849;DHT22;4963;51.444;6.528;2023-10-13T00:41:42;17.60;99.90
9849;DHT22;4963;51.444;6.528;2023-10-13T00:44:17;17.60;99.90
9849;DHT22;4963;51.444;6.528;2023-10-13T00:46:50;17.60;99.90
9849;DHT22;4963;51.444;6.528;2023-10-13T00:49:22;17.60;99.90
9849;DHT22;4963;51.444;6.528;2023-10-13T00:51:50;17.60;99.90
9849;DHT22;4963;51.444;6.528;2023-10-13T00:54:17;17.60;99.90
9849;DHT22;4963;51.444;6.528;2023-10-13T00:56:52;17.60;99.90
9849;DHT22;4963;51.444;6.528;2023-10-13T00:59:23;17.60;99.90
9849;DHT22;4963;51.444;6.528;2023-10-13T01:01:52;17.60;99.90
9849;DHT22;4963;51.444;6.528;2023-10-13T01:04:22;17.60;99.90
9849;DHT22;4963;51.444;6.528;2023-10-13T01:06:53;17.60;99.90
9849;DHT22;4963;51.444;6.528;2023-10-13T01:09:19;17.60;99.90
9849;DHT22;4963;51.444;6.528;2023-10-13T01:11:47;17.60;99.90
9849;DHT22;4963;51.444;6.528;2023-10-13T01:14:14;17.70;99.90
9849;DHT22;4963;51.444;6.528;2023-10-13T01:16:43;17.70;99.90
9849;DHT22;4963;51.444;6.528;2023-10-13T01:19:10;17.70;99.90
9849;DHT22;4963;51.444;6.528;2023-10-13T01:21:39;17.70;99.90
9849;DHT22;4963;51.444;6.528;2023-10-13T01:24:08;17.70;99.90
9849;DHT22;4963;51.444;6.528;2023-10-13T01:26:36;17.70;99.90
9849;DHT22;4963;51.444;6.528;2023-10-13T01:29:05;17.70;99.90
9849;DHT22;4963;51.444;6.528;2023-10-13T01:31:40;17.70;99.90
9849;DHT22;4963;51.444;6.528;2023-10-13T01:34:12;17.70;99.90
9849;DHT22;4963;51.444;6.528;2023-10-13T01:36:45;17.70;99.90
9849;DHT22;4963;51.444;6.528;2023-10-13T01:39:12;17.70;99.90
9849;DHT22;4963;51.444;6.528;2023-10-13T01:41:42;17.70;99.90
9849;DHT22;4963;51.444;6.528;2023-10-13T01:44:08;17.70;99.90
9849;DHT22;4963;51.444;6.528;2023-10-13T01:46:37;17.70;99.90
9849;DHT22;4963;51.444;6.528;2023-10-13T01:49:03;17.70;99.90
9849;DHT22;4963;51.444;6.528;2023-10-13T01:51:30;17.80;99.90
9849;DHT22;4963;51.444;6.528;2023-10-13T01:53:56;17.70;99.90
9849;DHT22;4963;51.444;6.528;2023-10-13T01:56:25;17.70;99.90
9849;DHT22;4963;51.444;6.528;2023-10-13T01:58:54;17.70;99.90
9849;DHT22;4963;51.444;6.528;2023-10-13T02:01:21;17.70;99.90
9849;DHT22;4963;51.444;6.528;2023-10-13T02:03:52;17.70;99.90
9849;DHT22;4963;51.444;6.528;2023-10-13T02:06:27;17.70;99.90
9849;DHT22;4963;51.444;6.528;2023-10-13T02:08:58;17.70;99.90
9849;DHT22;4963;51.444;6.528;2023-10-13T02:11:37;17.70;99.90
9849;DHT22;4963;51.444;6.528;2023-10-13T02:14:03;17.70;99.90
9849;DHT22;4963;51.444;6.528;2023-10-13T02:16:30;17.70;99.90
9849;DHT22;4963;51.444;6.528;2023-10-13T02:18:56;17.70;99.90
9849;DHT22;4963;51.444;6.528;2023-10-13T02:21:29;17.70;99.90
9849;DHT22;4963;51.444;6.528;2023-10-13T02:23:57;17.70;99.90
9849;DHT22;4963;51.444;6.528;2023-10-13T02:26:26;17.60;99.90
9849;DHT22;4963;51.444;6.528;2023-10-13T02:28:58;17.60;99.90
9849;DHT22;4963;51.444;6.528;2023-10-13T02:31:27;17.60;99.90
9849;DHT22;4963;51.444;6.528;2023-10-13T02:33:53;17.60;99.90
9849;DHT22;4963;51.444;6.528;2023-10-13T02:36:20;17.60;99.90
9849;DHT22;4963;51.444;6.528;2023-10-13T02:38:48;17.60;99.90
9849;DHT22;4963;51.444;6.528;2023-10-13T02:41:17;17.60;99.90
9849;DHT22;4963;51.444;6.528;2023-10-13T02:43:51;17.60;99.90
9849;DHT22;4963;51.444;6.528;2023-10-13T02:46:19;17.60;99.90
9849;DHT22;4963;51.444;6.528;2023-10-13T02:48:47;17.60;99.90
9849;DHT22;4963;51.444;6.528;2023-10-13T02:51:19;17.60;99.90
9849;DHT22;4963;51.444;6.528;2023-10-13T02:53:48;17.60;99.90
9849;DHT22;4963;51.444;6.528;2023-10-13T02:56:16;17.60;99.90
9849;DHT22;4963;51.444;6.528;2023-10-13T02:58:47;17.70;99.90
9849;DHT22;4963;51.444;6.528;2023-10-13T03:01:20;17.60;99.90
9849;DHT22;4963;51.444;6.528;2023-10-13T03:03:48;17.60;99.90
9849;DHT22;4963;51.444;6.528;2023-10-13T03:06:18;17.70;99.90
9849;DHT22;4963;51.444;6.528;2023-10-13T03:08:48;17.60;99.90
9849;DHT22;4963;51.444;6.528;2023-10-13T03:11:15;17.60;99.90
9849;DHT22;4963;51.444;6.528;2023-10-13T03:13:47;17.60;99.90
9849;DHT22;4963;51.444;6.528;2023-10-13T03:16:16;17.60;99.90
9849;DHT22;4963;51.444;6.528;2023-10-13T03:18:46;17.60;99.90
9849;DHT22;4963;51.444;6.528;2023-10-13T03:21:20;17.60;99.90
9849;DHT22;4963;51.444;6.528;2023-10-13T03:23:55;17.60;99.90
9849;DHT22;4963;51.444;6.528;2023-10-13T03:26:24;17.60;99.90
9849;DHT22;4963;51.444;6.528;2023-10-13T03:28:50;17.60;99.90
9849;DHT22;4963;51.444;6.528;2023-10-13T03:31:19;17.60;99.90
9849;DHT22;4963;51.444;6.528;2023-10-13T03:33:55;17.60;99.90
9849;DHT22;4963;51.444;6.528;2023-10-13T03:36:25;17.60;99.90
9849;DHT22;4963;51.444;6.528;2023-10-13T03:39:23;17.60;99.90
9849;DHT22;4963;51.444;6.528;2023-10-13T03:41:56;17.60;99.90
9849;DHT22;4963;51.444;6.528;2023-10-13T03:44:23;17.60;99.90
9849;DHT22;4963;51.444;6.528;2023-10-13T03:46:56;17.60;99.90
9849;DHT22;4963;51.444;6.528;2023-10-13T03:49:24;17.60;99.90
9849;DHT22;4963;51.444;6.528;2023-10-13T03:51:51;17.60;99.90
9849;DHT22;4963;51.444;6.528;2023-10-13T03:54:23;17.60;99.90
9849;DHT22;4963;51.444;6.528;2023-10-13T03:56:50;17.60;99.90
9849;DHT22;4963;51.444;6.528;2023-10-13T03:59:18;17.60;99.90
9849;DHT22;4963;51.444;6.528;2023-10-13T04:01:45;17.60;99.90
9849;DHT22;4963;51.444;6.528;2023-10-13T04:04:13;17.60;99.90
9849;DHT22;4963;51.444;6.528;2023-10-13T04:06:42;17.60;99.90
9849;DHT22;4963;51.444;6.528;2023-10-13T04:09:39;17.60;99.90
9849;DHT22;4963;51.444;6.528;2023-10-13T04:12:36;17.60;99.90
9849;DHT22;4963;51.444;6.528;2023-10-13T04:15:20;17.60;99.90
9849;DHT22;4963;51.444;6.528;2023-10-13T04:18:02;17.60;99.90
9849;DHT22;4963;51.444;6.528;2023-10-13T04:20:40;17.60;99.90
9849;DHT22;4963;51.444;6.528;2023-10-13T04:23:13;17.50;99.90
9849;DHT22;4963;51.444;6.528;2023-10-13T04:25:51;17.60;99.90
9849;DHT22;4963;51.444;6.528;2023-10-13T04:28:35;17.50;99.90
9849;DHT22;4963;51.444;6.528;2023-10-13T04:31:16;17.60;99.90
9849;DHT22;4963;51.444;6.528;2023-10-13T04:34:09;17.50;99.90
9849;DHT22;4963;51.444;6.528;2023-10-13T04:36:45;17.50;99.90
9849;DHT22;4963;51.444;6.528;2023-10-13T04:39:13;17.60;99.90
9849;DHT22;4963;51.444;6.528;2023-10-13T04:41:54;17.60;99.90
9849;DHT22;4963;51.444;6.528;2023-10-13T04:44:24;17.60;99.90
9849;DHT22;4963;51.444;6.528;2023-10-13T04:47:08;17.60;99.90
9849;DHT22;4963;51.444;6.528;2023-10-13T04:49:43;17.60;99.90
9849;DHT22;4963;51.444;6.528;2023-10-13T04:52:15;17.50;99.90
9849;DHT22;4963;51.444;6.528;2023-10-13T04:55:06;17.50;99.90
9849;DHT22;4963;51.444;6.528;2023-10-13T04:58:02;17.50;99.90
9849;DHT22;4963;51.444;6.528;2023-10-13T05:00:40;17.50;99.90
9849;DHT22;4963;51.444;6.528;2023-10-13T05:03:41;17.50;99.90
9849;DHT22;4963;51.444;6.528;2023-10-13T05:06:34;17.50;99.90
9849;DHT22;4963;51.444;6.528;2023-10-13T05:09:18;17.50;99.90
9849;DHT22;4963;51.444;6.528;2023-10-13T05:12:04;17.60;99.90
9849;DHT22;4963;51.444;6.528;2023-10-13T05:14:49;17.60;99.90
9849;DHT22;4963;51.444;6.528;2023-10-13T05:17:33;17.60;99.90
9849;DHT22;4963;51.444;6.528;2023-10-13T05:20:17;17.60;99.90
9849;DHT22;4963;51.444;6.528;2023-10-13T05:23:01;17.60;99.90
9849;DHT22;4963;51.444;6.528;2023-10-13T05:25:45;17.60;99.90
9849;DHT22;4963;51.444;6.528;2023-10-13T05:28:31;17.60;99.90
9849;DHT22;4963;51.444;6.528;2023-10-13T05:31:15;17.70;99.90
9849;DHT22;4963;51.444;6.528;2023-10-13T05:34:00;17.70;99.90
9849;DHT22;4963;51.444;6.528;2023-10-13T05:36:44;17.70;99.90
9849;DHT22;4963;51.444;6.528;2023-10-13T05:39:36;17.70;99.90
9849;DHT22;4963;51.444;6.528;2023-10-13T05:42:21;17.70;99.90
9849;DHT22;4963;51.444;6.528;2023-10-13T05:45:07;17.80;99.90
9849;DHT22;4963;51.444;6.528;2023-10-13T05:47:49;17.80;99.90
9849;DHT22;4963;51.444;6.528;2023-10-13T05:50:27;17.80;99.90
9849;DHT22;4963;51.444;6.528;2023-10-13T05:53:11;17.70;99.90
9849;DHT22;4963;51.444;6.528;2023-10-13T05:56:01;17.70;99.90
9849;DHT22;4963;51.444;6.528;2023-10-13T05:58:45;17.70;99.90
9849;DHT22;4963;51.444;6.528;2023-10-13T06:01:31;17.80;99.90
9849;DHT22;4963;51.444;6.528;2023-10-13T06:04:16;17.80;99.90
9849;DHT22;4963;51.444;6.528;2023-10-13T06:07:00;17.70;99.90
9849;DHT22;4963;51.444;6.528;2023-10-13T06:09:44;17.70;99.90
9849;DHT22;4963;51.444;6.528;2023-10-13T06:12:28;17.80;99.90
9849;DHT22;4963;51.444;6.528;2023-10-13T06:15:13;17.80;99.90
9849;DHT22;4963;51.444;6.528;2023-10-13T06:17:58;17.80;99.90
9849;DHT22;4963;51.444;6.528;2023-10-13T06:20:42;17.80;99.90
9849;DHT22;4963;51.444;6.528;2023-10-13T06:23:27;17.80;99.90
9849;DHT22;4963;51.444;6.528;2023-10-13T06:26:11;17.90;99.90
9849;DHT22;4963;51.444;6.528;2023-10-13T06:28:55;17.80;99.90
9849;DHT22;4963;51.444;6.528;2023-10-13T06:31:22;17.90;99.90
9849;DHT22;4963;51.444;6.528;2023-10-13T06:33:52;17.80;99.90
9849;DHT22;4963;51.444;6.528;2023-10-13T06:36:21;17.80;99.90
9849;DHT22;4963;51.444;6.528;2023-10-13T06:38:48;17.90;99.90
9849;DHT22;4963;51.444;6.528;2023-10-13T06:41:20;17.80;99.90
9849;DHT22;4963;51.444;6.528;2023-10-13T06:43:56;17.80;99.90
9849;DHT22;4963;51.444;6.528;2023-10-13T06:46:28;17.90;99.90
9849;DHT22;4963;51.444;6.528;2023-10-13T06:49:00;17.90;99.90
9849;DHT22;4963;51.444;6.528;2023-10-13T06:51:28;17.90;99.90
9849;DHT22;4963;51.444;6.528;2023-10-13T06:54:04;17.90;99.90
9849;DHT22;4963;51.444;6.528;2023-10-13T06:56:36;17.90;99.90
9849;DHT22;4963;51.444;6.528;2023-10-13T06:59:05;17.90;99.90
9849;DHT22;4963;51.444;6.528;2023-10-13T07:01:32;17.90;99.90
9849;DHT22;4963;51.444;6.528;2023-10-13T07:04:06;17.90;99.90
9849;DHT22;4963;51.444;6.528;2023-10-13T07:06:39;17.90;99.90
9849;DHT22;4963;51.444;6.528;2023-10-13T07:09:10;17.90;99.90
9849;DHT22;4963;51.444;6.528;2023-10-13T07:11:53;17.90;99.90
9849;DHT22;4963;51.444;6.528;2023-10-13T07:14:24;17.90;99.90
9849;DHT22;4963;51.444;6.528;2023-10-13T07:16:56;17.90;99.90
9849;DHT22;4963;51.444;6.528;2023-10-13T07:19:26;18.00;99.90
9849;DHT22;4963;51.444;6.528;2023-10-13T07:21:54;18.00;99.90
9849;DHT22;4963;51.444;6.528;2023-10-13T07:24:24;18.00;99.90
9849;DHT22;4963;51.444;6.528;2023-10-13T07:26:53;18.00;99.90
9849;DHT22;4963;51.444;6.528;2023-10-13T07:29:30;18.00;99.90
9849;DHT22;4963;51.444;6.528;2023-10-13T07:31:59;18.10;99.90
9849;DHT22;4963;51.444;6.528;2023-10-13T07:34:29;18.10;99.90
9849;DHT22;4963;51.444;6.528;2023-10-13T07:36:58;18.20;99.90
9849;DHT22;4963;51.444;6.528;2023-10-13T07:39:27;18.20;99.90
9849;DHT22;4963;51.444;6.528;2023-10-13T07:41:54;18.20;99.90
9849;DHT22;4963;51.444;6.528;2023-10-13T07:44:31;18.30;99.90
9849;DHT22;4963;51.444;6.528;2023-10-13T07:46:59;18.30;99.90
9849;DHT22;4963;51.444;6.528;2023-10-13T07:49:31;18.40;99.90
9849;DHT22;4963;51.444;6.528;2023-10-13T07:52:00;18.40;99.90
9849;DHT22;4963;51.444;6.528;2023-10-13T07:54:42;18.40;99.90
9849;DHT22;4963;51.444;6.528;2023-10-13T07:57:09;18.50;99.90
9849;DHT22;4963;51.444;6.528;2023-10-13T07:59:40;18.50;99.90
9849;DHT22;4963;51.444;6.528;2023-10-13T08:02:13;18.60;99.90
9849;DHT22;4963;51.444;6.528;2023-10-13T08:05:00;18.60;99.90
9849;DHT22;4963;51.444;6.528;2023-10-13T08:07:27;18.70;99.90
9849;DHT22;4963;51.444;6.528;2023-10-13T08:09:54;18.70;99.90
9849;DHT22;4963;51.444;6.528;2023-10-13T08:12:24;18.80;99.90
9849;DHT22;4963;51.444;6.528;2023-10-13T08:14:52;18.90;99.90
9849;DHT22;4963;51.444;6.528;2023-10-13T08:17:37;19.10;99.90
9849;DHT22;4963;51.444;6.528;2023-10-13T08:20:11;19.20;99.90
9849;DHT22;4963;51.444;6.528;2023-10-13T08:22:39;19.40;99.90
9849;DHT22;4963;51.444;6.528;2023-10-13T08:25:13;19.50;99.90
9849;DHT22;4963;51.444;6.528;2023-10-13T08:27:46;19.60;99.90
9849;DHT22;4963;51.444;6.528;2023-10-13T08:30:31;19.60;99.90
9849;DHT22;4963;51.444;6.528;2023-10-13T08:33:08;19.70;99.90
9849;DHT22;4963;51.444;6.528;2023-10-13T08:35:45;19.70;99.90
9849;DHT22;4963;51.444;6.528;2023-10-13T08:38:26;19.80;99.90
9849;DHT22;4963;51.444;6.528;2023-10-13T08:40:58;19.80;99.90
9849;DHT22;4963;51.444;6.528;2023-10-13T08:43:51;19.90;99.90
9849;DHT22;4963;51.444;6.528;2023-10-13T08:46:19;20.00;99.90
9849;DHT22;4963;51.444;6.528;2023-10-13T08:48:56;20.00;99.90
9849;DHT22;4963;51.444;6.528;2023-10-13T08:51:43;20.00;99.90
9849;DHT22;4963;51.444;6.528;2023-10-13T08:54:13;20.10;99.90
9849;DHT22;4963;51.444;6.528;2023-10-13T08:56:47;20.10;99.90
9849;DHT22;4963;51.444;6.528;2023-10-13T08:59:20;20.10;99.90
9849;DHT22;4963;51.444;6.528;2023-10-13T09:01:58;20.10;99.90
9849;DHT22;4963;51.444;6.528;2023-10-13T09:04:26;20.20;99.90
9849;DHT22;4963;51.444;6.528;2023-10-13T09:07:01;20.20;99.90
9849;DHT22;4963;51.444;6.528;2023-10-13T09:09:47;20.20;99.90
9849;DHT22;4963;51.444;6.528;2023-10-13T09:12:37;20.20;99.90
9849;DHT22;4963;51.444;6.528;2023-10-13T09:15:07;20.20;99.90
9849;DHT22;4963;51.444;6.528;2023-10-13T09:17:50;20.30;99.90
9849;DHT22;4963;51.444;6.528;2023-10-13T09:20:28;20.40;99.90
9849;DHT22;4963;51.444;6.528;2023-10-13T09:23:10;20.40;99.90
9849;DHT22;4963;51.444;6.528;2023-10-13T09:25:39;20.50;99.90
9849;DHT22;4963;51.444;6.528;2023-10-13T09:28:20;20.60;99.90
9849;DHT22;4963;51.444;6.528;2023-10-13T09:30:48;20.60;99.90
9849;DHT22;4963;51.444;6.528;2023-10-13T09:33:20;20.60;99.90
9849;DHT22;4963;51.444;6.528;2023-10-13T09:35:54;20.60;99.90
9849;DHT22;4963;51.444;6.528;2023-10-13T09:38:26;20.70;99.90
9849;DHT22;4963;51.444;6.528;2023-10-13T09:40:53;20.80;99.90
9849;DHT22;4963;51.444;6.528;2023-10-13T09:43:23;20.90;99.90
9849;DHT22;4963;51.444;6.528;2023-10-13T09:45:49;20.90;99.90
9849;DHT22;4963;51.444;6.528;2023-10-13T09:48:32;21.00;99.90
9849;DHT22;4963;51.444;6.528;2023-10-13T09:51:01;21.00;99.90
9849;DHT22;4963;51.444;6.528;2023-10-13T09:53:32;21.00;99.90
9849;DHT22;4963;51.444;6.528;2023-10-13T09:56:03;21.00;99.90
9849;DHT22;4963;51.444;6.528;2023-10-13T09:58:47;21.00;99.90
9849;DHT22;4963;51.444;6.528;2023-10-13T10:01:24;21.00;99.90
9849;DHT22;4963;51.444;6.528;2023-10-13T10:04:07;21.00;99.90
9849;DHT22;4963;51.444;6.528;2023-10-13T10:06:35;21.10;99.90
9849;DHT22;4963;51.444;6.528;2023-10-13T10:09:07;21.10;99.90
9849;DHT22;4963;51.444;6.528;2023-10-13T10:15:09;21.10;99.90
9849;DHT22;4963;51.444;6.528;2023-10-13T10:17:43;21.10;99.90
9849;DHT22;4963;51.444;6.528;2023-10-13T10:20:11;21.10;99.90
9849;DHT22;4963;51.444;6.528;2023-10-13T10:22:56;21.20;99.90
9849;DHT22;4963;51.444;6.528;2023-10-13T10:25:31;21.10;99.90
9849;DHT22;4963;51.444;6.528;2023-10-13T10:28:02;21.10;99.90
9849;DHT22;4963;51.444;6.528;2023-10-13T10:30:33;21.10;99.90
9849;DHT22;4963;51.444;6.528;2023-10-13T10:33:01;21.10;99.90
9849;DHT22;4963;51.444;6.528;2023-10-13T10:35:33;21.10;99.90
9849;DHT22;4963;51.444;6.528;2023-10-13T10:38:07;21.20;99.90
9849;DHT22;4963;51.444;6.528;2023-10-13T10:40:50;21.20;99.90
9849;DHT22;4963;51.444;6.528;2023-10-13T10:43:23;21.30;99.90
9849;DHT22;4963;51.444;6.528;2023-10-13T10:45:52;21.40;99.90
9849;DHT22;4963;51.444;6.528;2023-10-13T10:48:25;21.40;99.90
9849;DHT22;4963;51.444;6.528;2023-10-13T10:50:57;21.50;99.90
9849;DHT22;4963;51.444;6.528;2023-10-13T10:53:34;21.50;99.90
9849;DHT22;4963;51.444;6.528;2023-10-13T10:56:11;21.50;99.90
9849;DHT22;4963;51.444;6.528;2023-10-13T10:58:49;21.60;99.90
9849;DHT22;4963;51.444;6.528;2023-10-13T11:01:20;21.70;99.90
9849;DHT22;4963;51.444;6.528;2023-10-13T11:03:55;21.70;99.90
9849;DHT22;4963;51.444;6.528;2023-10-13T11:06:24;21.80;99.90
9849;DHT22;4963;51.444;6.528;2023-10-13T11:09:02;21.80;99.90
9849;DHT22;4963;51.444;6.528;2023-10-13T11:11:31;21.90;99.90
9849;DHT22;4963;51.444;6.528;2023-10-13T11:14:01;21.90;99.90
9849;DHT22;4963;51.444;6.528;2023-10-13T11:16:45;22.00;99.90
9849;DHT22;4963;51.444;6.528;2023-10-13T11:19:16;22.10;99.90
9849;DHT22;4963;51.444;6.528;2023-10-13T11:21:45;22.20;99.90
9849;DHT22;4963;51.444;6.528;2023-10-13T11:24:13;22.30;99.90
9849;DHT22;4963;51.444;6.528;2023-10-13T11:26:41;22.40;99.90
9849;DHT22;4963;51.444;6.528;2023-10-13T11:29:15;22.40;99.90
9849;DHT22;4963;51.444;6.528;2023-10-13T11:31:45;22.50;99.90
9849;DHT22;4963;51.444;6.528;2023-10-13T11:34:16;22.60;99.90
9849;DHT22;4963;51.444;6.528;2023-10-13T11:36:43;22.60;99.90
9849;DHT22;4963;51.444;6.528;2023-10-13T11:39:10;22.70;99.90
9849;DHT22;4963;51.444;6.528;2023-10-13T11:41:44;22.70;99.90
9849;DHT22;4963;51.444;6.528;2023-10-13T11:44:19;22.60;99.90
9849;DHT22;4963;51.444;6.528;2023-10-13T11:46:57;22.70;99.90
9849;DHT22;4963;51.444;6.528;2023-10-13T11:49:42;22.70;99.90
9849;DHT22;4963;51.444;6.528;2023-10-13T11:52:09;22.70;99.90
9849;DHT22;4963;51.444;6.528;2023-10-13T11:54:44;22.70;99.90
9849;DHT22;4963;51.444;6.528;2023-10-13T11:57:13;22.80;99.90
9849;DHT22;4963;51.444;6.528;2023-10-13T11:59:47;22.70;99.90
9849;DHT22;4963;51.444;6.528;2023-10-13T12:02:21;22.80;99.90
9849;DHT22;4963;51.444;6.528;2023-10-13T12:05:06;22.80;99.90
9849;DHT22;4963;51.444;6.528;2023-10-13T12:07:42;22.80;99.90
9849;DHT22;4963;51.444;6.528;2023-10-13T12:10:14;22.80;99.90
9849;DHT22;4963;51.444;6.528;2023-10-13T12:13:01;22.90;99.90
9849;DHT22;4963;51.444;6.528;2023-10-13T12:15:33;22.80;99.90
9849;DHT22;4963;51.444;6.528;2023-10-13T12:18:14;22.80;99.90
9849;DHT22;4963;51.444;6.528;2023-10-13T12:20:41;22.80;99.90
9849;DHT22;4963;51.444;6.528;2023-10-13T12:23:15;22.70;99.90
9849;DHT22;4963;51.444;6.528;2023-10-13T12:25:43;22.70;99.90
9849;DHT22;4963;51.444;6.528;2023-10-13T12:28:26;22.60;99.90
9849;DHT22;4963;51.444;6.528;2023-10-13T12:30:55;22.60;99.90
9849;DHT22;4963;51.444;6.528;2023-10-13T12:33:25;22.60;99.90
9849;DHT22;4963;51.444;6.528;2023-10-13T12:35:56;22.60;99.90
9849;DHT22;4963;51.444;6.528;2023-10-13T12:38:40;22.60;99.90
9849;DHT22;4963;51.444;6.528;2023-10-13T12:41:28;22.60;99.90
9849;DHT22;4963;51.444;6.528;2023-10-13T12:44:13;22.60;99.90
9849;DHT22;4963;51.444;6.528;2023-10-13T12:46:58;22.60;99.90
9849;DHT22;4963;51.444;6.528;2023-10-13T12:49:42;22.60;99.90
9849;DHT22;4963;51.444;6.528;2023-10-13T12:52:39;22.60;99.90
9849;DHT22;4963;51.444;6.528;2023-10-13T12:55:11;22.60;99.90
9849;DHT22;4963;51.444;6.528;2023-10-13T12:57:39;22.60;99.90
9849;DHT22;4963;51.444;6.528;2023-10-13T13:00:16;22.60;99.90
9849;DHT22;4963;51.444;6.528;2023-10-13T13:02:46;22.60;99.90
9849;DHT22;4963;51.444;6.528;2023-10-13T13:05:16;22.60;99.90
9849;DHT22;4963;51.444;6.528;2023-10-13T13:07:47;22.60;99.90
9849;DHT22;4963;51.444;6.528;2023-10-13T13:10:18;22.60;99.90
9849;DHT22;4963;51.444;6.528;2023-10-13T13:12:46;22.70;99.90
9849;DHT22;4963;51.444;6.528;2023-10-13T13:15:13;22.70;99.90
9849;DHT22;4963;51.444;6.528;2023-10-13T13:17:42;22.70;99.90
9849;DHT22;4963;51.444;6.528;2023-10-13T13:20:09;22.70;99.90
9849;DHT22;4963;51.444;6.528;2023-10-13T13:22:52;22.80;99.90
9849;DHT22;4963;51.444;6.528;2023-10-13T13:25:19;22.80;99.90
9849;DHT22;4963;51.444;6.528;2023-10-13T13:27:57;22.70;99.90
9849;DHT22;4963;51.444;6.528;2023-10-13T13:30:30;22.80;99.90
9849;DHT22;4963;51.444;6.528;2023-10-13T13:33:01;22.80;99.90
9849;DHT22;4963;51.444;6.528;2023-10-13T13:35:36;22.80;99.90
9849;DHT22;4963;51.444;6.528;2023-10-13T13:38:28;22.80;99.90
9849;DHT22;4963;51.444;6.528;2023-10-13T13:40:57;22.80;99.90
9849;DHT22;4963;51.444;6.528;2023-10-13T13:43:27;22.70;99.90
9849;DHT22;4963;51.444;6.528;2023-10-13T13:46:16;22.70;99.90
9849;DHT22;4963;51.444;6.528;2023-10-13T13:48:45;22.60;99.90
9849;DHT22;4963;51.444;6.528;2023-10-13T13:51:13;22.50;99.90
9849;DHT22;4963;51.444;6.528;2023-10-13T13:53:41;22.50;99.90
9849;DHT22;4963;51.444;6.528;2023-10-13T13:56:10;22.50;99.90
9849;DHT22;4963;51.444;6.528;2023-10-13T13:58:41;22.50;99.90
9849;DHT22;4963;51.444;6.528;2023-10-13T14:01:08;22.50;99.90
9849;DHT22;4963;51.444;6.528;2023-10-13T14:03:40;22.50;99.90
9849;DHT22;4963;51.444;6.528;2023-10-13T14:06:13;22.50;99.90
9849;DHT22;4963;51.444;6.528;2023-10-13T14:08:44;22.50;99.90
9849;DHT22;4963;51.444;6.528;2023-10-13T14:11:14;22.40;99.90
9849;DHT22;4963;51.444;6.528;2023-10-13T14:13:48;22.40;99.90
9849;DHT22;4963;51.444;6.528;2023-10-13T14:16:15;22.40;99.90
9849;DHT22;4963;51.444;6.528;2023-10-13T14:18:49;22.30;99.90
9849;DHT22;4963;51.444;6.528;2023-10-13T14:21:18;22.30;99.90
9849;DHT22;4963;51.444;6.528;2023-10-13T14:23:49;22.20;99.90
9849;DHT22;4963;51.444;6.528;2023-10-13T14:26:17;22.20;99.90
9849;DHT22;4963;51.444;6.528;2023-10-13T14:28:46;22.20;99.90
9849;DHT22;4963;51.444;6.528;2023-10-13T14:31:18;22.10;99.90
9849;DHT22;4963;51.444;6.528;2023-10-13T14:33:46;22.10;99.90
9849;DHT22;4963;51.444;6.528;2023-10-13T14:36:14;22.10;99.90
9849;DHT22;4963;51.444;6.528;2023-10-13T14:38:46;22.10;99.90
9849;DHT22;4963;51.444;6.528;2023-10-13T14:41:15;22.00;99.90
9849;DHT22;4963;51.444;6.528;2023-10-13T14:43:43;22.00;99.90
9849;DHT22;4963;51.444;6.528;2023-10-13T14:46:14;21.90;99.90
9849;DHT22;4963;51.444;6.528;2023-10-13T14:48:41;21.90;99.90
9849;DHT22;4963;51.444;6.528;2023-10-13T14:51:09;21.80;99.90
9849;DHT22;4963;51.444;6.528;2023-10-13T14:53:39;21.80;99.90
9849;DHT22;4963;51.444;6.528;2023-10-13T14:56:10;21.80;99.90
9849;DHT22;4963;51.444;6.528;2023-10-13T14:58:38;21.80;99.90
9849;DHT22;4963;51.444;6.528;2023-10-13T15:01:11;21.70;99.90
9849;DHT22;4963;51.444;6.528;2023-10-13T15:03:41;21.70;99.90
9849;DHT22;4963;51.444;6.528;2023-10-13T15:06:08;21.60;99.90
9849;DHT22;4963;51.444;6.528;2023-10-13T15:08:43;21.60;99.90
9849;DHT22;4963;51.444;6.528;2023-10-13T15:11:12;21.60;99.90
9849;DHT22;4963;51.444;6.528;2023-10-13T15:13:40;21.60;99.90
9849;DHT22;4963;51.444;6.528;2023-10-13T15:16:13;21.50;99.90
9849;DHT22;4963;51.444;6.528;2023-10-13T15:18:43;21.50;99.90
9849;DHT22;4963;51.444;6.528;2023-10-13T15:21:09;21.50;99.90
9849;DHT22;4963;51.444;6.528;2023-10-13T15:23:37;21.50;99.90
9849;DHT22;4963;51.444;6.528;2023-10-13T15:26:08;21.50;99.90
9849;DHT22;4963;51.444;6.528;2023-10-13T15:28:37;21.50;99.90
9849;DHT22;4963;51.444;6.528;2023-10-13T15:31:13;21.50;99.90
9849;DHT22;4963;51.444;6.528;2023-10-13T15:33:52;21.40;99.90
9849;DHT22;4963;51.444;6.528;2023-10-13T15:36:20;21.40;99.90
9849;DHT22;4963;51.444;6.528;2023-10-13T15:38:49;21.40;99.90
9849;DHT22;4963;51.444;6.528;2023-10-13T15:41:21;21.40;99.90
9849;DHT22;4963;51.444;6.528;2023-10-13T15:43:50;21.40;99.90
9849;DHT22;4963;51.444;6.528;2023-10-13T15:46:18;21.40;99.90
9849;DHT22;4963;51.444;6.528;2023-10-13T15:48:46;21.30;99.90
9849;DHT22;4963;51.444;6.528;2023-10-13T15:51:13;21.40;99.90
9849;DHT22;4963;51.444;6.528;2023-10-13T15:53:40;21.30;99.90
9849;DHT22;4963;51.444;6.528;2023-10-13T15:56:08;21.40;99.90
9849;DHT22;4963;51.444;6.528;2023-10-13T15:58:38;21.30;99.90
9849;DHT22;4963;51.444;6.528;2023-10-13T16:01:06;21.30;99.90
9849;DHT22;4963;51.444;6.528;2023-10-13T16:03:35;21.30;99.90
9849;DHT22;4963;51.444;6.528;2023-10-13T16:06:02;21.30;99.90
9849;DHT22;4963;51.444;6.528;2023-10-13T16:08:35;21.30;99.90
9849;DHT22;4963;51.444;6.528;2023-10-13T16:11:06;21.40;99.90
9849;DHT22;4963;51.444;6.528;2023-10-13T16:13:34;21.30;99.90
9849;DHT22;4963;51.444;6.528;2023-10-13T16:16:02;21.30;99.90
9849;DHT22;4963;51.444;6.528;2023-10-13T16:18:33;21.30;99.90
9849;DHT22;4963;51.444;6.528;2023-10-13T16:21:00;21.30;99.90
9849;DHT22;4963;51.444;6.528;2023-10-13T16:23:29;21.30;99.90
9849;DHT22;4963;51.444;6.528;2023-10-13T16:25:56;21.20;99.90
9849;DHT22;4963;51.444;6.528;2023-10-13T16:28:27;21.20;99.90
9849;DHT22;4963;51.444;6.528;2023-10-13T16:30:54;21.10;99.90
9849;DHT22;4963;51.444;6.528;2023-10-13T16:33:21;21.20;99.90
9849;DHT22;4963;51.444;6.528;2023-10-13T16:35:51;21.20;99.90
9849;DHT22;4963;51.444;6.528;2023-10-13T16:38:19;21.20;99.90
9849;DHT22;4963;51.444;6.528;2023-10-13T16:40:51;21.20;99.90
9849;DHT22;4963;51.444;6.528;2023-10-13T16:43:19;21.20;99.90
9849;DHT22;4963;51.444;6.528;2023-10-13T16:45:46;21.20;99.90